sensor_id;sensor_type;location;lat;lon;timestamp;P1;durP1;ratioP1;P2;durP2;ratioP2
21166;SDS011;10741;52.272;9.580;2022-10-17T00:01:11;4.13;;;3.07;;
21166;SDS011;10741;52.272;9.580;2022-10-17T00:03:38;3.77;;;3.23;;
21166;SDS011;10741;52.272;9.580;2022-10-17T00:06:14;3.90;;;3.60;;
21166;SDS011;10741;52.272;9.580;2022-10-17T00:08:40;5.90;;;4.00;;
21166;SDS011;10741;52.272;9.580;2022-10-17T00:11:11;4.23;;;3.80;;
21166;SDS011;10741;52.272;9.580;2022-10-17T00:13:41;4.67;;;4.23;;
21166;SDS011;10741;52.272;9.580;2022-10-17T00:16:07;6.17;;;3.80;;
21166;SDS011;10741;52.272;9.580;2022-10-17T00:18:33;4.63;;;4.23;;
21166;SDS011;10741;52.272;9.580;2022-10-17T00:20:59;6.13;;;3.70;;
21166;SDS011;10741;52.272;9.580;2022-10-17T00:23:25;5.77;;;4.00;;
21166;SDS011;10741;52.272;9.580;2022-10-17T00:26:00;5.77;;;4.10;;
21166;SDS011;10741;52.272;9.580;2022-10-17T00:28:28;6.20;;;4.40;;
21166;SDS011;10741;52.272;9.580;2022-10-17T00:30:56;4.80;;;4.40;;
21166;SDS011;10741;52.272;9.580;2022-10-17T00:33:22;5.90;;;4.40;;
21166;SDS011;10741;52.272;9.580;2022-10-17T00:35:48;5.87;;;4.17;;
21166;SDS011;10741;52.272;9.580;2022-10-17T00:38:14;7.50;;;4.13;;
21166;SDS011;10741;52.272;9.580;2022-10-17T00:40:39;4.87;;;4.37;;
21166;SDS011;10741;52.272;9.580;2022-10-17T00:43:11;4.20;;;3.90;;
21166;SDS011;10741;52.272;9.580;2022-10-17T00:45:42;6.83;;;4.50;;
21166;SDS011;10741;52.272;9.580;2022-10-17T00:48:08;5.00;;;4.30;;
21166;SDS011;10741;52.272;9.580;2022-10-17T00:50:37;7.40;;;4.80;;
21166;SDS011;10741;52.272;9.580;2022-10-17T00:53:04;5.00;;;4.53;;
21166;SDS011;10741;52.272;9.580;2022-10-17T00:55:32;8.07;;;4.17;;
21166;SDS011;10741;52.272;9.580;2022-10-17T00:58:02;9.00;;;4.67;;
21166;SDS011;10741;52.272;9.580;2022-10-17T01:00:29;6.13;;;4.60;;
21166;SDS011;10741;52.272;9.580;2022-10-17T01:02:55;4.70;;;4.20;;
21166;SDS011;10741;52.272;9.580;2022-10-17T01:05:21;4.00;;;3.60;;
21166;SDS011;10741;52.272;9.580;2022-10-17T01:07:47;8.53;;;4.23;;
21166;SDS011;10741;52.272;9.580;2022-10-17T01:10:14;5.40;;;4.33;;
21166;SDS011;10741;52.272;9.580;2022-10-17T01:12:46;8.27;;;4.47;;
21166;SDS011;10741;52.272;9.580;2022-10-17T01:31:22;7.47;;;4.30;;
21166;SDS011;10741;52.272;9.580;2022-10-17T01:34:11;6.57;;;4.77;;
21166;SDS011;10741;52.272;9.580;2022-10-17T01:39:52;4.93;;;4.37;;
21166;SDS011;10741;52.272;9.580;2022-10-17T01:42:52;8.90;;;4.57;;
21166;SDS011;10741;52.272;9.580;2022-10-17T01:45:32;5.67;;;4.53;;
21166;SDS011;10741;52.272;9.580;2022-10-17T01:48:06;7.03;;;4.97;;
21166;SDS011;10741;52.272;9.580;2022-10-17T01:50:50;5.50;;;5.00;;
21166;SDS011;10741;52.272;9.580;2022-10-17T01:53:21;8.43;;;4.87;;
21166;SDS011;10741;52.272;9.580;2022-10-17T01:55:53;5.57;;;5.07;;
21166;SDS011;10741;52.272;9.580;2022-10-17T01:58:27;6.10;;;5.10;;
21166;SDS011;10741;52.272;9.580;2022-10-17T02:01:06;6.97;;;5.13;;
21166;SDS011;10741;52.272;9.580;2022-10-17T02:03:35;5.57;;;5.07;;
21166;SDS011;10741;52.272;9.580;2022-10-17T02:06:02;6.00;;;5.47;;
21166;SDS011;10741;52.272;9.580;2022-10-17T02:08:38;5.97;;;4.63;;
21166;SDS011;10741;52.272;9.580;2022-10-17T02:13:53;6.83;;;5.53;;
21166;SDS011;10741;52.272;9.580;2022-10-17T02:19:32;9.27;;;5.20;;
21166;SDS011;10741;52.272;9.580;2022-10-17T02:24:53;6.40;;;5.40;;
21166;SDS011;10741;52.272;9.580;2022-10-17T02:29:59;5.90;;;5.23;;
21166;SDS011;10741;52.272;9.580;2022-10-17T02:32:43;11.10;;;4.73;;
21166;SDS011;10741;52.272;9.580;2022-10-17T02:35:39;5.47;;;4.70;;
21166;SDS011;10741;52.272;9.580;2022-10-17T02:38:09;6.07;;;5.30;;
21166;SDS011;10741;52.272;9.580;2022-10-17T02:40:37;5.47;;;4.97;;
21166;SDS011;10741;52.272;9.580;2022-10-17T02:43:04;7.87;;;4.73;;
21166;SDS011;10741;52.272;9.580;2022-10-17T02:45:31;8.17;;;5.20;;
21166;SDS011;10741;52.272;9.580;2022-10-17T02:50:45;5.63;;;5.13;;
21166;SDS011;10741;52.272;9.580;2022-10-17T02:53:37;6.03;;;4.93;;
21166;SDS011;10741;52.272;9.580;2022-10-17T02:56:18;5.33;;;4.80;;
21166;SDS011;10741;52.272;9.580;2022-10-17T02:58:47;6.67;;;4.80;;
21166;SDS011;10741;52.272;9.580;2022-10-17T03:01:17;5.40;;;4.90;;
21166;SDS011;10741;52.272;9.580;2022-10-17T03:03:44;6.37;;;4.80;;
21166;SDS011;10741;52.272;9.580;2022-10-17T03:06:09;6.40;;;4.73;;
21166;SDS011;10741;52.272;9.580;2022-10-17T03:08:35;5.93;;;4.50;;
21166;SDS011;10741;52.272;9.580;2022-10-17T03:11:01;4.93;;;4.53;;
21166;SDS011;10741;52.272;9.580;2022-10-17T03:13:27;5.47;;;4.93;;
21166;SDS011;10741;52.272;9.580;2022-10-17T03:15:57;5.93;;;4.93;;
21166;SDS011;10741;52.272;9.580;2022-10-17T03:18:22;5.93;;;5.13;;
21166;SDS011;10741;52.272;9.580;2022-10-17T03:20:48;8.00;;;4.60;;
21166;SDS011;10741;52.272;9.580;2022-10-17T03:23:14;6.20;;;5.00;;
21166;SDS011;10741;52.272;9.580;2022-10-17T03:25:40;5.57;;;4.90;;
21166;SDS011;10741;52.272;9.580;2022-10-17T03:28:06;6.13;;;5.17;;
21166;SDS011;10741;52.272;9.580;2022-10-17T03:30:32;9.07;;;5.10;;
21166;SDS011;10741;52.272;9.580;2022-10-17T03:32:58;9.90;;;5.07;;
21166;SDS011;10741;52.272;9.580;2022-10-17T03:35:24;5.87;;;5.27;;
21166;SDS011;10741;52.272;9.580;2022-10-17T03:37:50;5.40;;;4.90;;
21166;SDS011;10741;52.272;9.580;2022-10-17T03:40:16;6.17;;;4.77;;
21166;SDS011;10741;52.272;9.580;2022-10-17T03:42:42;5.20;;;4.07;;
21166;SDS011;10741;52.272;9.580;2022-10-17T03:45:08;6.10;;;4.23;;
21166;SDS011;10741;52.272;9.580;2022-10-17T03:47:34;4.57;;;3.70;;
21166;SDS011;10741;52.272;9.580;2022-10-17T03:50:00;4.33;;;3.30;;
21166;SDS011;10741;52.272;9.580;2022-10-17T03:52:25;5.50;;;3.63;;
21166;SDS011;10741;52.272;9.580;2022-10-17T03:54:51;6.87;;;3.00;;
21166;SDS011;10741;52.272;9.580;2022-10-17T03:57:17;3.97;;;3.00;;
21166;SDS011;10741;52.272;9.580;2022-10-17T03:59:43;5.27;;;3.53;;
21166;SDS011;10741;52.272;9.580;2022-10-17T04:02:09;4.37;;;3.07;;
21166;SDS011;10741;52.272;9.580;2022-10-17T04:04:35;5.37;;;2.97;;
21166;SDS011;10741;52.272;9.580;2022-10-17T04:07:01;2.93;;;2.60;;
21166;SDS011;10741;52.272;9.580;2022-10-17T04:09:26;3.37;;;3.07;;
21166;SDS011;10741;52.272;9.580;2022-10-17T04:11:52;4.17;;;2.77;;
21166;SDS011;10741;52.272;9.580;2022-10-17T04:14:18;4.90;;;2.93;;
21166;SDS011;10741;52.272;9.580;2022-10-17T04:16:43;7.83;;;3.13;;
21166;SDS011;10741;52.272;9.580;2022-10-17T04:19:11;3.50;;;3.20;;
21166;SDS011;10741;52.272;9.580;2022-10-17T04:21:37;3.27;;;2.80;;
21166;SDS011;10741;52.272;9.580;2022-10-17T04:24:03;3.30;;;2.93;;
21166;SDS011;10741;52.272;9.580;2022-10-17T04:26:29;5.03;;;2.73;;
21166;SDS011;10741;52.272;9.580;2022-10-17T04:28:55;5.87;;;2.60;;
21166;SDS011;10741;52.272;9.580;2022-10-17T04:31:21;6.83;;;2.57;;
21166;SDS011;10741;52.272;9.580;2022-10-17T04:33:47;2.90;;;2.57;;
21166;SDS011;10741;52.272;9.580;2022-10-17T04:36:15;4.47;;;2.77;;
21166;SDS011;10741;52.272;9.580;2022-10-17T04:38:43;3.93;;;2.73;;
21166;SDS011;10741;52.272;9.580;2022-10-17T04:41:13;4.33;;;2.90;;
21166;SDS011;10741;52.272;9.580;2022-10-17T04:43:41;3.47;;;2.37;;
21166;SDS011;10741;52.272;9.580;2022-10-17T04:46:08;3.93;;;2.23;;
21166;SDS011;10741;52.272;9.580;2022-10-17T04:48:36;4.53;;;2.77;;
21166;SDS011;10741;52.272;9.580;2022-10-17T04:51:03;3.37;;;2.70;;
21166;SDS011;10741;52.272;9.580;2022-10-17T04:53:31;3.60;;;2.77;;
21166;SDS011;10741;52.272;9.580;2022-10-17T04:55:58;3.83;;;2.50;;
21166;SDS011;10741;52.272;9.580;2022-10-17T04:58:24;6.10;;;2.90;;
21166;SDS011;10741;52.272;9.580;2022-10-17T05:00:52;5.50;;;2.80;;
21166;SDS011;10741;52.272;9.580;2022-10-17T05:03:17;4.20;;;2.80;;
21166;SDS011;10741;52.272;9.580;2022-10-17T05:05:43;3.70;;;2.70;;
21166;SDS011;10741;52.272;9.580;2022-10-17T05:08:09;5.23;;;2.70;;
21166;SDS011;10741;52.272;9.580;2022-10-17T05:10:36;2.77;;;2.40;;
21166;SDS011;10741;52.272;9.580;2022-10-17T05:13:02;4.83;;;2.60;;
21166;SDS011;10741;52.272;9.580;2022-10-17T05:15:29;7.50;;;3.10;;
21166;SDS011;10741;52.272;9.580;2022-10-17T05:17:55;2.90;;;2.33;;
21166;SDS011;10741;52.272;9.580;2022-10-17T05:20:20;4.00;;;2.47;;
21166;SDS011;10741;52.272;9.580;2022-10-17T05:22:47;6.83;;;2.70;;
21166;SDS011;10741;52.272;9.580;2022-10-17T05:25:12;5.40;;;2.50;;
21166;SDS011;10741;52.272;9.580;2022-10-17T05:27:38;7.07;;;2.47;;
21166;SDS011;10741;52.272;9.580;2022-10-17T05:30:04;7.00;;;2.47;;
21166;SDS011;10741;52.272;9.580;2022-10-17T05:32:30;4.93;;;2.27;;
21166;SDS011;10741;52.272;9.580;2022-10-17T05:34:56;5.23;;;2.33;;
21166;SDS011;10741;52.272;9.580;2022-10-17T05:37:22;5.10;;;2.80;;
21166;SDS011;10741;52.272;9.580;2022-10-17T05:39:48;3.73;;;2.60;;
21166;SDS011;10741;52.272;9.580;2022-10-17T05:42:13;4.40;;;2.50;;
21166;SDS011;10741;52.272;9.580;2022-10-17T05:44:39;4.33;;;2.20;;
21166;SDS011;10741;52.272;9.580;2022-10-17T05:47:06;3.30;;;2.50;;
21166;SDS011;10741;52.272;9.580;2022-10-17T05:49:32;3.07;;;2.77;;
21166;SDS011;10741;52.272;9.580;2022-10-17T05:51:58;4.17;;;2.73;;
21166;SDS011;10741;52.272;9.580;2022-10-17T05:54:23;4.10;;;2.90;;
21166;SDS011;10741;52.272;9.580;2022-10-17T05:56:53;6.57;;;2.90;;
21166;SDS011;10741;52.272;9.580;2022-10-17T05:59:19;4.37;;;2.70;;
21166;SDS011;10741;52.272;9.580;2022-10-17T06:01:46;7.83;;;2.73;;
21166;SDS011;10741;52.272;9.580;2022-10-17T06:04:11;4.97;;;2.60;;
21166;SDS011;10741;52.272;9.580;2022-10-17T06:06:38;3.37;;;3.00;;
21166;SDS011;10741;52.272;9.580;2022-10-17T06:09:04;2.93;;;2.53;;
21166;SDS011;10741;52.272;9.580;2022-10-17T06:11:31;4.80;;;2.97;;
21166;SDS011;10741;52.272;9.580;2022-10-17T06:13:58;5.87;;;3.07;;
21166;SDS011;10741;52.272;9.580;2022-10-17T06:16:24;5.60;;;2.80;;
21166;SDS011;10741;52.272;9.580;2022-10-17T06:18:49;5.50;;;3.00;;
21166;SDS011;10741;52.272;9.580;2022-10-17T06:21:16;5.63;;;3.27;;
21166;SDS011;10741;52.272;9.580;2022-10-17T06:23:48;6.77;;;2.90;;
21166;SDS011;10741;52.272;9.580;2022-10-17T06:26:13;5.03;;;3.33;;
21166;SDS011;10741;52.272;9.580;2022-10-17T06:28:39;6.37;;;3.00;;
21166;SDS011;10741;52.272;9.580;2022-10-17T06:31:09;5.17;;;3.10;;
21166;SDS011;10741;52.272;9.580;2022-10-17T06:33:36;7.57;;;3.10;;
21166;SDS011;10741;52.272;9.580;2022-10-17T06:36:03;5.43;;;3.00;;
21166;SDS011;10741;52.272;9.580;2022-10-17T06:38:30;4.87;;;2.80;;
21166;SDS011;10741;52.272;9.580;2022-10-17T06:41:06;4.67;;;2.80;;
21166;SDS011;10741;52.272;9.580;2022-10-17T06:43:38;3.77;;;2.60;;
21166;SDS011;10741;52.272;9.580;2022-10-17T06:46:10;4.23;;;2.67;;
21166;SDS011;10741;52.272;9.580;2022-10-17T06:48:37;5.17;;;2.80;;
21166;SDS011;10741;52.272;9.580;2022-10-17T06:51:03;2.90;;;2.57;;
21166;SDS011;10741;52.272;9.580;2022-10-17T06:53:30;3.47;;;2.80;;
21166;SDS011;10741;52.272;9.580;2022-10-17T06:55:57;5.20;;;2.60;;
21166;SDS011;10741;52.272;9.580;2022-10-17T06:58:31;4.80;;;2.60;;
21166;SDS011;10741;52.272;9.580;2022-10-17T07:00:59;5.53;;;3.10;;
21166;SDS011;10741;52.272;9.580;2022-10-17T07:03:26;4.20;;;2.60;;
21166;SDS011;10741;52.272;9.580;2022-10-17T07:05:52;4.83;;;2.40;;
21166;SDS011;10741;52.272;9.580;2022-10-17T07:08:18;4.20;;;2.73;;
21166;SDS011;10741;52.272;9.580;2022-10-17T07:10:44;5.27;;;2.90;;
21166;SDS011;10741;52.272;9.580;2022-10-17T07:13:10;5.40;;;2.73;;
21166;SDS011;10741;52.272;9.580;2022-10-17T07:15:36;5.30;;;2.63;;
21166;SDS011;10741;52.272;9.580;2022-10-17T07:18:02;6.23;;;2.77;;
21166;SDS011;10741;52.272;9.580;2022-10-17T07:20:28;6.23;;;3.00;;
21166;SDS011;10741;52.272;9.580;2022-10-17T07:22:54;3.23;;;2.67;;
21166;SDS011;10741;52.272;9.580;2022-10-17T07:25:20;5.13;;;2.80;;
21166;SDS011;10741;52.272;9.580;2022-10-17T07:27:49;10.03;;;2.83;;
21166;SDS011;10741;52.272;9.580;2022-10-17T07:30:17;5.07;;;2.73;;
21166;SDS011;10741;52.272;9.580;2022-10-17T07:32:43;4.87;;;2.80;;
21166;SDS011;10741;52.272;9.580;2022-10-17T07:35:09;6.83;;;2.60;;
21166;SDS011;10741;52.272;9.580;2022-10-17T07:37:36;5.23;;;2.90;;
21166;SDS011;10741;52.272;9.580;2022-10-17T07:40:04;3.83;;;2.80;;
21166;SDS011;10741;52.272;9.580;2022-10-17T07:42:32;3.40;;;2.50;;
21166;SDS011;10741;52.272;9.580;2022-10-17T07:45:00;5.10;;;2.60;;
21166;SDS011;10741;52.272;9.580;2022-10-17T07:47:26;4.30;;;2.53;;
21166;SDS011;10741;52.272;9.580;2022-10-17T07:49:51;3.90;;;3.07;;
21166;SDS011;10741;52.272;9.580;2022-10-17T07:52:17;5.40;;;2.90;;
21166;SDS011;10741;52.272;9.580;2022-10-17T07:54:43;5.83;;;2.73;;
21166;SDS011;10741;52.272;9.580;2022-10-17T07:57:09;5.37;;;2.90;;
21166;SDS011;10741;52.272;9.580;2022-10-17T07:59:36;6.83;;;3.33;;
21166;SDS011;10741;52.272;9.580;2022-10-17T08:02:02;3.73;;;2.53;;
21166;SDS011;10741;52.272;9.580;2022-10-17T08:04:29;4.37;;;2.43;;
21166;SDS011;10741;52.272;9.580;2022-10-17T08:06:55;3.90;;;2.50;;
21166;SDS011;10741;52.272;9.580;2022-10-17T08:09:20;3.40;;;2.50;;
21166;SDS011;10741;52.272;9.580;2022-10-17T08:11:46;6.20;;;2.70;;
21166;SDS011;10741;52.272;9.580;2022-10-17T08:14:13;3.90;;;2.50;;
21166;SDS011;10741;52.272;9.580;2022-10-17T08:16:40;5.17;;;2.90;;
21166;SDS011;10741;52.272;9.580;2022-10-17T08:19:06;5.37;;;2.70;;
21166;SDS011;10741;52.272;9.580;2022-10-17T08:21:37;5.70;;;2.90;;
21166;SDS011;10741;52.272;9.580;2022-10-17T08:24:03;4.77;;;2.93;;
21166;SDS011;10741;52.272;9.580;2022-10-17T08:26:29;12.23;;;3.30;;
21166;SDS011;10741;52.272;9.580;2022-10-17T08:28:55;11.53;;;2.87;;
21166;SDS011;10741;52.272;9.580;2022-10-17T08:31:21;6.23;;;2.67;;
21166;SDS011;10741;52.272;9.580;2022-10-17T08:33:47;7.83;;;3.23;;
21166;SDS011;10741;52.272;9.580;2022-10-17T08:36:14;5.13;;;2.90;;
21166;SDS011;10741;52.272;9.580;2022-10-17T08:38:42;6.10;;;3.37;;
21166;SDS011;10741;52.272;9.580;2022-10-17T08:43:48;4.20;;;3.10;;
21166;SDS011;10741;52.272;9.580;2022-10-17T08:46:17;5.50;;;3.00;;
21166;SDS011;10741;52.272;9.580;2022-10-17T08:48:44;5.27;;;2.70;;
21166;SDS011;10741;52.272;9.580;2022-10-17T08:51:16;5.37;;;3.27;;
21166;SDS011;10741;52.272;9.580;2022-10-17T08:56:20;4.90;;;2.73;;
21166;SDS011;10741;52.272;9.580;2022-10-17T08:58:49;5.27;;;2.83;;
21166;SDS011;10741;52.272;9.580;2022-10-17T09:01:25;3.30;;;2.63;;
21166;SDS011;10741;52.272;9.580;2022-10-17T09:07:06;3.40;;;2.40;;
21166;SDS011;10741;52.272;9.580;2022-10-17T09:09:48;6.30;;;3.03;;
21166;SDS011;10741;52.272;9.580;2022-10-17T09:18:32;4.73;;;2.40;;
21166;SDS011;10741;52.272;9.580;2022-10-17T09:21:19;8.73;;;2.87;;
21166;SDS011;10741;52.272;9.580;2022-10-17T09:23:56;4.80;;;2.60;;
21166;SDS011;10741;52.272;9.580;2022-10-17T09:26:27;4.53;;;2.80;;
21166;SDS011;10741;52.272;9.580;2022-10-17T09:28:54;11.77;;;3.23;;
21166;SDS011;10741;52.272;9.580;2022-10-17T09:34:07;4.77;;;2.70;;
21166;SDS011;10741;52.272;9.580;2022-10-17T09:36:36;8.23;;;3.20;;
21166;SDS011;10741;52.272;9.580;2022-10-17T09:39:17;6.07;;;2.70;;
21166;SDS011;10741;52.272;9.580;2022-10-17T09:41:48;3.27;;;2.63;;
21166;SDS011;10741;52.272;9.580;2022-10-17T09:44:28;3.17;;;2.87;;
21166;SDS011;10741;52.272;9.580;2022-10-17T09:49:53;4.77;;;2.83;;
21166;SDS011;10741;52.272;9.580;2022-10-17T10:00:23;6.67;;;2.83;;
21166;SDS011;10741;52.272;9.580;2022-10-17T10:05:39;9.07;;;2.90;;
21166;SDS011;10741;52.272;9.580;2022-10-17T10:08:13;3.30;;;3.00;;
21166;SDS011;10741;52.272;9.580;2022-10-17T10:10:40;2.60;;;2.40;;
21166;SDS011;10741;52.272;9.580;2022-10-17T10:15:43;4.50;;;2.77;;
21166;SDS011;10741;52.272;9.580;2022-10-17T10:18:27;6.97;;;3.23;;
21166;SDS011;10741;52.272;9.580;2022-10-17T10:21:06;3.20;;;2.83;;
21166;SDS011;10741;52.272;9.580;2022-10-17T10:23:34;6.87;;;3.00;;
21166;SDS011;10741;52.272;9.580;2022-10-17T10:28:51;4.60;;;3.10;;
21166;SDS011;10741;52.272;9.580;2022-10-17T10:31:24;3.87;;;2.93;;
21166;SDS011;10741;52.272;9.580;2022-10-17T10:33:52;5.87;;;3.30;;
21166;SDS011;10741;52.272;9.580;2022-10-17T10:36:18;4.37;;;2.83;;
21166;SDS011;10741;52.272;9.580;2022-10-17T10:38:50;5.57;;;2.67;;
21166;SDS011;10741;52.272;9.580;2022-10-17T10:41:19;3.90;;;3.03;;
21166;SDS011;10741;52.272;9.580;2022-10-17T10:43:46;7.33;;;2.73;;
21166;SDS011;10741;52.272;9.580;2022-10-17T10:48:54;4.60;;;2.57;;
21166;SDS011;10741;52.272;9.580;2022-10-17T10:56:51;6.73;;;2.97;;
21166;SDS011;10741;52.272;9.580;2022-10-17T10:59:23;3.90;;;2.97;;
21166;SDS011;10741;52.272;9.580;2022-10-17T11:07:02;6.30;;;2.80;;
21166;SDS011;10741;52.272;9.580;2022-10-17T11:12:19;6.00;;;3.10;;
21166;SDS011;10741;52.272;9.580;2022-10-17T11:20:30;5.50;;;2.80;;
21166;SDS011;10741;52.272;9.580;2022-10-17T11:23:43;5.30;;;3.13;;
21166;SDS011;10741;52.272;9.580;2022-10-17T11:26:20;9.03;;;2.83;;
21166;SDS011;10741;52.272;9.580;2022-10-17T11:28:54;5.97;;;3.27;;
21166;SDS011;10741;52.272;9.580;2022-10-17T11:31:22;3.70;;;2.90;;
21166;SDS011;10741;52.272;9.580;2022-10-17T11:36:25;5.10;;;3.23;;
21166;SDS011;10741;52.272;9.580;2022-10-17T11:38:55;3.77;;;2.67;;
21166;SDS011;10741;52.272;9.580;2022-10-17T11:41:33;6.73;;;2.63;;
21166;SDS011;10741;52.272;9.580;2022-10-17T11:53:00;4.67;;;2.37;;
21166;SDS011;10741;52.272;9.580;2022-10-17T11:55:42;5.50;;;3.10;;
21166;SDS011;10741;52.272;9.580;2022-10-17T12:01:05;5.10;;;2.60;;
21166;SDS011;10741;52.272;9.580;2022-10-17T12:03:43;3.83;;;2.57;;
21166;SDS011;10741;52.272;9.580;2022-10-17T12:12:32;5.53;;;2.60;;
21166;SDS011;10741;52.272;9.580;2022-10-17T12:17:59;6.73;;;2.90;;
21166;SDS011;10741;52.272;9.580;2022-10-17T12:25:30;6.07;;;3.03;;
21166;SDS011;10741;52.272;9.580;2022-10-17T12:30:32;7.57;;;2.60;;
21166;SDS011;10741;52.272;9.580;2022-10-17T12:32:59;4.97;;;3.27;;
21166;SDS011;10741;52.272;9.580;2022-10-17T12:35:28;9.33;;;2.93;;
21166;SDS011;10741;52.272;9.580;2022-10-17T12:37:59;4.93;;;2.50;;
21166;SDS011;10741;52.272;9.580;2022-10-17T12:43:01;4.77;;;2.80;;
21166;SDS011;10741;52.272;9.580;2022-10-17T12:45:55;7.77;;;3.10;;
21166;SDS011;10741;52.272;9.580;2022-10-17T12:51:06;4.97;;;2.87;;
21166;SDS011;10741;52.272;9.580;2022-10-17T12:56:15;5.93;;;2.80;;
21166;SDS011;10741;52.272;9.580;2022-10-17T12:58:44;6.00;;;3.50;;
21166;SDS011;10741;52.272;9.580;2022-10-17T13:01:20;5.47;;;3.17;;
21166;SDS011;10741;52.272;9.580;2022-10-17T13:03:51;7.83;;;3.30;;
21166;SDS011;10741;52.272;9.580;2022-10-17T13:06:22;4.60;;;3.13;;
21166;SDS011;10741;52.272;9.580;2022-10-17T13:09:01;4.80;;;3.37;;
21166;SDS011;10741;52.272;9.580;2022-10-17T13:11:32;6.13;;;3.40;;
21166;SDS011;10741;52.272;9.580;2022-10-17T13:14:01;8.97;;;3.40;;
21166;SDS011;10741;52.272;9.580;2022-10-17T13:16:34;7.40;;;3.10;;
21166;SDS011;10741;52.272;9.580;2022-10-17T13:19:10;4.83;;;3.73;;
21166;SDS011;10741;52.272;9.580;2022-10-17T13:27:02;8.07;;;3.00;;
21166;SDS011;10741;52.272;9.580;2022-10-17T13:29:29;5.70;;;3.40;;
21166;SDS011;10741;52.272;9.580;2022-10-17T13:32:00;4.53;;;2.83;;
21166;SDS011;10741;52.272;9.580;2022-10-17T13:34:28;9.63;;;3.40;;
21166;SDS011;10741;52.272;9.580;2022-10-17T13:36:56;5.20;;;3.33;;
21166;SDS011;10741;52.272;9.580;2022-10-17T13:39:26;4.87;;;3.57;;
21166;SDS011;10741;52.272;9.580;2022-10-17T13:42:00;4.03;;;3.20;;
21166;SDS011;10741;52.272;9.580;2022-10-17T13:44:27;9.70;;;3.63;;
21166;SDS011;10741;52.272;9.580;2022-10-17T13:46:57;4.83;;;3.23;;
21166;SDS011;10741;52.272;9.580;2022-10-17T13:52:05;6.03;;;3.33;;
21166;SDS011;10741;52.272;9.580;2022-10-17T13:54:42;11.37;;;3.77;;
21166;SDS011;10741;52.272;9.580;2022-10-17T13:57:29;7.20;;;3.27;;
21166;SDS011;10741;52.272;9.580;2022-10-17T13:59:57;5.70;;;4.07;;
21166;SDS011;10741;52.272;9.580;2022-10-17T14:02:32;4.73;;;3.43;;
21166;SDS011;10741;52.272;9.580;2022-10-17T14:10:23;5.87;;;3.90;;
21166;SDS011;10741;52.272;9.580;2022-10-17T14:12:54;5.23;;;3.30;;
21166;SDS011;10741;52.272;9.580;2022-10-17T14:15:21;4.43;;;3.17;;
21166;SDS011;10741;52.272;9.580;2022-10-17T14:17:58;8.57;;;4.23;;
21166;SDS011;10741;52.272;9.580;2022-10-17T14:20:29;6.70;;;3.57;;
21166;SDS011;10741;52.272;9.580;2022-10-17T14:22:56;6.53;;;3.40;;
21166;SDS011;10741;52.272;9.580;2022-10-17T14:25:30;4.60;;;3.60;;
21166;SDS011;10741;52.272;9.580;2022-10-17T14:30:39;6.43;;;3.80;;
21166;SDS011;10741;52.272;9.580;2022-10-17T14:33:10;6.77;;;3.70;;
21166;SDS011;10741;52.272;9.580;2022-10-17T14:35:52;7.03;;;3.70;;
21166;SDS011;10741;52.272;9.580;2022-10-17T14:38:19;7.57;;;3.77;;
21166;SDS011;10741;52.272;9.580;2022-10-17T14:40:54;6.90;;;3.33;;
21166;SDS011;10741;52.272;9.580;2022-10-17T14:43:27;5.97;;;3.87;;
21166;SDS011;10741;52.272;9.580;2022-10-17T14:45:58;6.87;;;3.50;;
21166;SDS011;10741;52.272;9.580;2022-10-17T14:48:25;6.57;;;3.73;;
21166;SDS011;10741;52.272;9.580;2022-10-17T14:51:13;4.10;;;3.63;;
21166;SDS011;10741;52.272;9.580;2022-10-17T14:53:41;5.63;;;3.63;;
21166;SDS011;10741;52.272;9.580;2022-10-17T14:56:25;3.90;;;3.30;;
21166;SDS011;10741;52.272;9.580;2022-10-17T14:58:58;6.10;;;3.20;;
21166;SDS011;10741;52.272;9.580;2022-10-17T15:01:24;6.97;;;3.90;;
21166;SDS011;10741;52.272;9.580;2022-10-17T15:03:49;10.13;;;3.50;;
21166;SDS011;10741;52.272;9.580;2022-10-17T15:06:19;5.27;;;3.73;;
21166;SDS011;10741;52.272;9.580;2022-10-17T15:08:47;5.23;;;3.43;;
21166;SDS011;10741;52.272;9.580;2022-10-17T15:11:13;6.10;;;3.53;;
21166;SDS011;10741;52.272;9.580;2022-10-17T15:13:38;4.17;;;3.60;;
21166;SDS011;10741;52.272;9.580;2022-10-17T15:16:23;9.53;;;3.53;;
21166;SDS011;10741;52.272;9.580;2022-10-17T15:18:51;6.93;;;3.77;;
21166;SDS011;10741;52.272;9.580;2022-10-17T15:21:21;9.33;;;3.70;;
21166;SDS011;10741;52.272;9.580;2022-10-17T15:23:49;4.10;;;3.50;;
21166;SDS011;10741;52.272;9.580;2022-10-17T15:28:51;6.10;;;3.93;;
21166;SDS011;10741;52.272;9.580;2022-10-17T15:31:19;6.70;;;3.33;;
21166;SDS011;10741;52.272;9.580;2022-10-17T15:33:46;10.13;;;3.97;;
21166;SDS011;10741;52.272;9.580;2022-10-17T15:36:54;5.73;;;4.07;;
21166;SDS011;10741;52.272;9.580;2022-10-17T15:39:04;7.93;;;3.70;;
21166;SDS011;10741;52.272;9.580;2022-10-17T15:41:30;5.57;;;3.80;;
21166;SDS011;10741;52.272;9.580;2022-10-17T15:43:57;6.17;;;4.17;;
21166;SDS011;10741;52.272;9.580;2022-10-17T15:46:24;9.43;;;4.07;;
21166;SDS011;10741;52.272;9.580;2022-10-17T15:48:51;7.33;;;3.80;;
21166;SDS011;10741;52.272;9.580;2022-10-17T15:51:18;8.90;;;3.63;;
21166;SDS011;10741;52.272;9.580;2022-10-17T15:53:44;8.80;;;4.00;;
21166;SDS011;10741;52.272;9.580;2022-10-17T15:56:20;7.53;;;4.23;;
21166;SDS011;10741;52.272;9.580;2022-10-17T15:59:04;8.83;;;3.87;;
21166;SDS011;10741;52.272;9.580;2022-10-17T16:01:31;7.17;;;4.03;;
21166;SDS011;10741;52.272;9.580;2022-10-17T16:03:58;7.00;;;3.90;;
21166;SDS011;10741;52.272;9.580;2022-10-17T16:06:24;5.63;;;4.17;;
21166;SDS011;10741;52.272;9.580;2022-10-17T16:08:50;5.60;;;4.33;;
21166;SDS011;10741;52.272;9.580;2022-10-17T16:11:18;5.80;;;3.80;;
21166;SDS011;10741;52.272;9.580;2022-10-17T16:14:03;8.33;;;3.63;;
21166;SDS011;10741;52.272;9.580;2022-10-17T16:16:38;7.20;;;4.20;;
21166;SDS011;10741;52.272;9.580;2022-10-17T16:19:05;7.23;;;4.33;;
21166;SDS011;10741;52.272;9.580;2022-10-17T16:21:32;6.70;;;4.27;;
21166;SDS011;10741;52.272;9.580;2022-10-17T16:23:59;5.93;;;3.70;;
21166;SDS011;10741;52.272;9.580;2022-10-17T16:26:25;6.63;;;3.90;;
21166;SDS011;10741;52.272;9.580;2022-10-17T16:28:52;6.77;;;3.83;;
21166;SDS011;10741;52.272;9.580;2022-10-17T16:31:23;7.17;;;4.30;;
21166;SDS011;10741;52.272;9.580;2022-10-17T16:33:53;8.03;;;4.50;;
21166;SDS011;10741;52.272;9.580;2022-10-17T16:36:20;5.53;;;3.90;;
21166;SDS011;10741;52.272;9.580;2022-10-17T16:38:46;6.70;;;4.30;;
21166;SDS011;10741;52.272;9.580;2022-10-17T16:41:23;7.33;;;4.17;;
21166;SDS011;10741;52.272;9.580;2022-10-17T16:43:52;7.03;;;4.57;;
21166;SDS011;10741;52.272;9.580;2022-10-17T16:46:19;6.97;;;4.63;;
21166;SDS011;10741;52.272;9.580;2022-10-17T16:48:46;10.40;;;4.73;;
21166;SDS011;10741;52.272;9.580;2022-10-17T16:51:12;12.63;;;5.17;;
21166;SDS011;10741;52.272;9.580;2022-10-17T16:53:39;8.70;;;4.67;;
21166;SDS011;10741;52.272;9.580;2022-10-17T16:56:09;4.77;;;4.00;;
21166;SDS011;10741;52.272;9.580;2022-10-17T16:58:36;6.63;;;4.47;;
21166;SDS011;10741;52.272;9.580;2022-10-17T17:01:03;8.93;;;4.23;;
21166;SDS011;10741;52.272;9.580;2022-10-17T17:03:34;8.63;;;3.93;;
21166;SDS011;10741;52.272;9.580;2022-10-17T17:06:01;7.77;;;4.13;;
21166;SDS011;10741;52.272;9.580;2022-10-17T17:08:27;10.53;;;4.37;;
21166;SDS011;10741;52.272;9.580;2022-10-17T17:10:53;7.97;;;4.67;;
21166;SDS011;10741;52.272;9.580;2022-10-17T17:13:19;6.17;;;4.33;;
21166;SDS011;10741;52.272;9.580;2022-10-17T17:15:45;9.73;;;4.93;;
21166;SDS011;10741;52.272;9.580;2022-10-17T17:18:11;8.80;;;4.70;;
21166;SDS011;10741;52.272;9.580;2022-10-17T17:20:38;7.17;;;4.87;;
21166;SDS011;10741;52.272;9.580;2022-10-17T17:23:05;6.70;;;4.67;;
21166;SDS011;10741;52.272;9.580;2022-10-17T17:25:32;9.90;;;4.30;;
21166;SDS011;10741;52.272;9.580;2022-10-17T17:28:00;8.93;;;4.27;;
21166;SDS011;10741;52.272;9.580;2022-10-17T17:30:27;6.80;;;4.63;;